createdAt,value
2022-09-10T00:01:36.395Z,1.60
2022-09-10T00:04:08.637Z,2.93
2022-09-10T00:06:38.771Z,0.97
2022-09-10T00:09:08.155Z,1.13
2022-09-10T00:11:38.766Z,1.37
2022-09-10T00:14:08.987Z,2.47
2022-09-10T00:16:37.167Z,5.93
2022-09-10T00:19:06.610Z,1.80
2022-09-10T00:21:35.882Z,2.50
2022-09-10T00:24:06.388Z,3.17
2022-09-10T00:26:39.503Z,2.17
2022-09-10T00:29:10.432Z,3.63
2022-09-10T00:31:39.057Z,1.80
2022-09-10T00:34:09.126Z,3.53
2022-09-10T00:36:40.940Z,1.83
2022-09-10T00:39:13.338Z,2.43
2022-09-10T00:41:43.562Z,2.10
2022-09-10T00:44:45.116Z,3.03
2022-09-10T00:47:17.469Z,3.43
2022-09-10T00:49:48.398Z,1.83
2022-09-10T00:52:18.671Z,3.67
2022-09-10T00:54:48.992Z,5.70
2022-09-10T00:57:22.106Z,1.93
2022-09-10T00:59:53.888Z,2.03
2022-09-10T01:02:22.742Z,1.50
2022-09-10T01:04:51.285Z,1.87
2022-09-10T01:07:21.416Z,2.67
2022-09-10T01:09:51.382Z,1.63
2022-09-10T01:12:35.814Z,1.40
2022-09-10T01:15:15.743Z,2.67
2022-09-10T01:17:57.210Z,2.47
2022-09-10T01:20:44.666Z,2.10
2022-09-10T01:23:49.863Z,5.47
2022-09-10T01:26:32.870Z,2.40
2022-09-10T01:29:08.686Z,1.53
2022-09-10T01:31:43.990Z,1.53
2022-09-10T01:34:20.254Z,0.60
2022-09-10T01:36:52.017Z,5.47
2022-09-10T01:39:22.131Z,2.63
2022-09-10T01:41:50.765Z,5.23
2022-09-10T01:44:44.923Z,3.03
2022-09-10T01:47:22.833Z,3.60
2022-09-10T01:50:12.114Z,1.83
2022-09-10T01:52:51.563Z,5.00
2022-09-10T01:55:35.606Z,2.00
2022-09-10T01:58:12.571Z,3.30
2022-09-10T02:00:46.882Z,3.23
2022-09-10T02:03:18.301Z,3.17
2022-09-10T02:05:50.545Z,1.93
2022-09-10T02:08:23.572Z,1.43
2022-09-10T02:10:53.935Z,4.83
2022-09-10T02:13:23.361Z,1.30
2022-09-10T02:15:53.918Z,3.97
2022-09-10T02:18:23.504Z,3.90
2022-09-10T02:20:55.792Z,2.87
2022-09-10T02:23:31.632Z,1.40
2022-09-10T02:26:00.172Z,2.83
2022-09-10T02:28:28.484Z,4.13
2022-09-10T02:30:58.184Z,3.80
2022-09-10T02:33:26.403Z,1.87
2022-09-10T02:35:55.176Z,3.07
2022-09-10T02:38:23.444Z,1.73
2022-09-10T02:40:51.954Z,2.37
2022-09-10T02:43:20.113Z,3.33
2022-09-10T02:45:48.279Z,1.63
2022-09-10T02:48:18.296Z,1.77
2022-09-10T02:50:46.604Z,4.63
2022-09-10T02:53:14.694Z,1.90
2022-09-10T02:55:46.206Z,4.50
2022-09-10T02:58:16.361Z,1.63
2022-09-10T03:00:45.401Z,1.20
2022-09-10T03:03:14.461Z,3.83
2022-09-10T03:05:44.073Z,1.50
2022-09-10T03:08:14.546Z,1.90
2022-09-10T03:10:42.788Z,3.93
2022-09-10T03:13:10.843Z,1.97
2022-09-10T03:15:39.278Z,2.13
2022-09-10T03:18:08.308Z,3.70
2022-09-10T03:20:36.454Z,2.00
2022-09-10T03:23:05.939Z,3.03
2022-09-10T03:25:36.466Z,1.13
2022-09-10T03:28:04.991Z,5.43
2022-09-10T03:30:33.184Z,5.43
2022-09-10T03:33:02.380Z,3.50
2022-09-10T03:35:30.403Z,5.47
2022-09-10T03:37:58.488Z,4.73
2022-09-10T03:40:29.631Z,2.77
2022-09-10T03:42:59.142Z,2.40
2022-09-10T03:45:27.658Z,1.20
2022-09-10T03:47:55.745Z,1.10
2022-09-10T03:50:24.042Z,2.07
2022-09-10T03:52:52.402Z,4.60
2022-09-10T03:55:21.106Z,1.70
2022-09-10T03:57:50.598Z,1.97
2022-09-10T04:00:18.912Z,1.10
2022-09-10T04:02:47.021Z,3.23
2022-09-10T04:05:15.744Z,3.77
2022-09-10T04:07:44.029Z,2.10
2022-09-10T04:10:13.251Z,1.50
2022-09-10T04:12:41.444Z,1.30
2022-09-10T04:15:13.343Z,3.63
2022-09-10T04:17:41.857Z,2.27
2022-09-10T04:20:10.706Z,1.27
2022-09-10T04:22:38.878Z,1.53
2022-09-10T04:25:08.325Z,3.30
2022-09-10T04:27:36.772Z,1.93
2022-09-10T04:30:05.397Z,3.67
2022-09-10T04:32:34.957Z,1.63
2022-09-10T04:35:03.309Z,3.53
2022-09-10T04:37:31.846Z,2.70
2022-09-10T04:40:00.075Z,3.87
2022-09-10T04:42:28.541Z,3.30
2022-09-10T04:44:56.971Z,2.70
2022-09-10T04:47:25.756Z,2.13
2022-09-10T04:49:55.979Z,3.13
2022-09-10T04:52:24.253Z,4.30
2022-09-10T04:54:52.665Z,4.10
2022-09-10T04:57:20.987Z,2.30
2022-09-10T04:59:49.091Z,3.37
2022-09-10T05:02:17.314Z,4.00
2022-09-10T05:04:45.726Z,3.70
2022-09-10T05:07:15.226Z,1.37
2022-09-10T05:09:43.987Z,5.00
2022-09-10T05:12:12.096Z,4.10
2022-09-10T05:14:40.191Z,1.40
2022-09-10T05:17:08.736Z,1.87
2022-09-10T05:19:38.544Z,1.27
2022-09-10T05:22:06.937Z,6.30
2022-09-10T05:24:36.703Z,1.83
2022-09-10T05:27:05.051Z,3.53
2022-09-10T05:29:33.212Z,2.50
2022-09-10T05:32:01.368Z,2.90
2022-09-10T05:34:29.453Z,1.33
2022-09-10T05:36:57.554Z,4.80
2022-09-10T05:39:25.725Z,1.90
2022-09-10T05:41:55.919Z,8.97
2022-09-10T05:44:24.055Z,2.80
2022-09-10T05:46:52.473Z,4.87
2022-09-10T05:49:20.502Z,2.07
2022-09-10T05:51:48.621Z,4.80
2022-09-10T05:54:18.187Z,5.20
2022-09-10T05:56:46.547Z,3.53
2022-09-10T05:59:16.098Z,3.40
2022-09-10T06:01:44.576Z,2.90
2022-09-10T06:04:13.325Z,3.23
2022-09-10T06:06:41.493Z,1.30
2022-09-10T06:09:09.668Z,1.37
2022-09-10T06:11:37.764Z,3.20
2022-09-10T06:14:06.309Z,3.60
2022-09-10T06:16:35.837Z,5.60
2022-09-10T06:19:04.028Z,2.20
2022-09-10T06:21:32.381Z,1.90
2022-09-10T06:24:00.570Z,3.70
2022-09-10T06:26:28.902Z,3.80
2022-09-10T06:28:57.569Z,2.83
2022-09-10T06:31:27.616Z,2.53
2022-09-10T06:33:57.119Z,2.47
2022-09-10T06:36:25.177Z,4.00
2022-09-10T06:38:55.673Z,3.30
2022-09-10T06:41:24.337Z,5.83
2022-09-10T06:43:52.512Z,3.80
2022-09-10T06:49:12.758Z,2.27
2022-09-10T06:51:41.271Z,2.20
2022-09-10T06:54:09.454Z,4.23
2022-09-10T06:56:38.073Z,6.23
2022-09-10T06:59:06.274Z,2.40
2022-09-10T07:01:34.698Z,1.80
2022-09-10T07:04:06.319Z,4.47
2022-09-10T07:06:36.851Z,1.43
2022-09-10T07:09:05.621Z,2.20
2022-09-10T07:11:36.933Z,4.80
2022-09-10T07:14:12.276Z,3.43
2022-09-10T07:16:44.683Z,2.43
2022-09-10T07:19:15.059Z,2.20
2022-09-10T07:21:44.891Z,2.50
2022-09-10T07:24:14.524Z,2.20
2022-09-10T07:26:48.970Z,2.53
2022-09-10T07:29:22.870Z,2.70
2022-09-10T07:31:51.364Z,4.10
2022-09-10T07:34:20.317Z,3.30
2022-09-10T07:36:50.683Z,2.70
2022-09-10T07:39:21.352Z,4.53
2022-09-10T07:41:53.483Z,4.20
2022-09-10T07:44:22.003Z,5.40
2022-09-10T07:46:50.280Z,5.97
2022-09-10T07:49:18.376Z,2.30
2022-09-10T07:51:46.528Z,2.40
2022-09-10T07:54:17.088Z,4.37
2022-09-10T07:56:45.201Z,4.73
2022-09-10T07:59:15.238Z,4.67
2022-09-10T08:01:44.657Z,4.73
2022-09-10T08:04:12.823Z,4.10
2022-09-10T08:06:41.004Z,2.83
2022-09-10T08:09:09.320Z,7.10
2022-09-10T08:11:41.973Z,5.73
2022-09-10T08:14:10.633Z,6.57
2022-09-10T08:16:42.496Z,5.30
2022-09-10T08:19:13.860Z,8.73
2022-09-10T08:21:42.019Z,5.80
2022-09-10T08:24:14.121Z,4.60
2022-09-10T08:26:43.618Z,4.77
2022-09-10T08:29:11.951Z,5.20
2022-09-10T08:31:41.601Z,6.87
2022-09-10T08:34:13.750Z,7.87
2022-09-10T08:36:42.247Z,5.50
2022-09-10T08:39:12.456Z,7.40
2022-09-10T08:41:55.151Z,6.13
2022-09-10T08:44:33.106Z,8.93
2022-09-10T08:47:07.527Z,6.60
2022-09-10T08:49:40.712Z,6.90
2022-09-10T08:52:17.168Z,7.40
2022-09-10T08:54:57.248Z,7.27
2022-09-10T08:57:31.661Z,9.83
2022-09-10T09:00:01.191Z,7.53
2022-09-10T09:02:49.519Z,6.27
2022-09-10T09:05:20.152Z,7.60
2022-09-10T09:07:49.508Z,7.17
2022-09-10T09:10:33.679Z,10.13
2022-09-10T09:13:28.588Z,7.77
2022-09-10T09:16:09.509Z,7.03
2022-09-10T09:18:50.395Z,10.30
2022-09-10T09:21:25.072Z,9.30
2022-09-10T09:24:12.707Z,8.83
2022-09-10T09:26:47.642Z,8.43
2022-09-10T09:29:24.562Z,8.43
2022-09-10T09:31:59.642Z,6.00
2022-09-10T09:34:35.119Z,5.40
2022-09-10T09:37:05.868Z,4.90
2022-09-10T09:39:46.848Z,5.50
2022-09-10T09:42:23.392Z,5.33
2022-09-10T09:45:02.240Z,6.67
2022-09-10T09:47:30.484Z,5.60
2022-09-10T09:49:59.514Z,8.47
2022-09-10T09:52:31.228Z,9.40
2022-09-10T09:55:14.479Z,6.80
2022-09-10T09:57:43.727Z,8.13
2022-09-10T10:00:37.190Z,6.23
2022-09-10T10:03:13.910Z,4.27
2022-09-10T10:05:43.984Z,9.50
2022-09-10T10:08:31.180Z,9.33
2022-09-10T10:10:59.870Z,7.30
2022-09-10T10:13:39.061Z,5.90
2022-09-10T10:16:20.941Z,8.40
2022-09-10T10:18:50.007Z,4.73
2022-09-10T10:21:34.161Z,6.53
2022-09-10T10:24:04.120Z,8.00
2022-09-10T10:26:34.006Z,8.53
2022-09-10T10:29:07.167Z,6.67
2022-09-10T10:31:41.268Z,5.87
2022-09-10T10:34:40.266Z,6.17
2022-09-10T10:37:16.076Z,6.57
2022-09-10T10:40:04.155Z,6.60
2022-09-10T10:42:37.094Z,6.00
2022-09-10T10:45:32.241Z,6.20
2022-09-10T10:48:10.056Z,5.40
2022-09-10T10:50:48.718Z,5.30
2022-09-10T10:53:43.237Z,6.00
2022-09-10T10:56:19.493Z,4.70
2022-09-10T10:59:05.287Z,6.50
2022-09-10T11:01:39.888Z,5.40
2022-09-10T11:04:23.942Z,4.90
2022-09-10T11:06:58.059Z,5.03
2022-09-10T11:09:31.254Z,6.13
2022-09-10T11:12:03.317Z,5.30
2022-09-10T11:14:40.450Z,6.13
2022-09-10T11:17:16.750Z,6.87
2022-09-10T11:20:05.310Z,6.07
2022-09-10T11:22:46.409Z,7.70
2022-09-10T11:25:21.671Z,7.33
2022-09-10T11:27:54.869Z,6.93
2022-09-10T11:30:23.242Z,6.70
2022-09-10T11:32:59.834Z,7.60
2022-09-10T11:35:32.034Z,6.40
2022-09-10T11:38:07.923Z,7.43
2022-09-10T11:40:43.318Z,6.93
2022-09-10T11:43:15.008Z,8.27
2022-09-10T11:45:48.984Z,7.43
2022-09-10T11:48:23.902Z,7.00
2022-09-10T11:50:57.185Z,7.43
2022-09-10T11:53:26.616Z,9.13
2022-09-10T11:56:16.165Z,7.57
2022-09-10T11:58:55.453Z,10.43
2022-09-10T12:01:44.125Z,8.43
2022-09-10T12:04:47.358Z,8.00
2022-09-10T12:07:30.549Z,9.63
2022-09-10T12:10:12.274Z,7.13
2022-09-10T12:12:44.349Z,8.20
2022-09-10T12:15:20.010Z,7.50
2022-09-10T12:17:54.195Z,7.10
2022-09-10T12:20:29.601Z,7.37
2022-09-10T12:23:06.144Z,6.43
2022-09-10T12:25:40.751Z,7.00
2022-09-10T12:28:49.671Z,8.93
2022-09-10T12:31:21.038Z,8.30
2022-09-10T12:34:08.193Z,8.70
2022-09-10T12:37:19.890Z,8.50
2022-09-10T12:39:50.326Z,10.30
2022-09-10T12:42:36.872Z,9.23
2022-09-10T12:45:05.427Z,7.33
2022-09-10T12:47:52.652Z,7.10
2022-09-10T12:50:46.246Z,7.13
2022-09-10T12:53:47.364Z,8.27
2022-09-10T12:56:54.500Z,9.50
2022-09-10T12:59:57.259Z,8.30
2022-09-10T13:02:31.845Z,7.90
2022-09-10T13:05:02.698Z,9.87
2022-09-10T13:07:41.604Z,7.83
2022-09-10T13:10:21.841Z,8.00
2022-09-10T13:12:56.643Z,8.43
2022-09-10T13:15:27.490Z,8.83
2022-09-10T13:18:26.086Z,8.33
2022-09-10T13:20:54.340Z,7.80
2022-09-10T13:23:25.056Z,7.43
2022-09-10T13:25:53.471Z,8.53
2022-09-10T13:29:09.236Z,7.10
2022-09-10T13:31:41.912Z,7.70
2022-09-10T13:34:56.693Z,6.53
2022-09-10T13:38:00.442Z,6.73
2022-09-10T13:41:02.603Z,7.13
2022-09-10T13:44:01.036Z,7.37
2022-09-10T13:46:37.673Z,6.90
2022-09-10T13:49:13.860Z,7.37
2022-09-10T13:51:51.144Z,7.80
2022-09-10T13:54:31.563Z,6.13
2022-09-10T13:57:07.526Z,6.63
2022-09-10T13:59:38.157Z,5.73
2022-09-10T14:02:07.975Z,4.60
2022-09-10T14:04:39.915Z,3.93
2022-09-10T14:07:16.255Z,4.30
2022-09-10T14:09:46.315Z,5.03
2022-09-10T14:12:16.106Z,2.97
2022-09-10T14:14:52.551Z,3.57
2022-09-10T14:17:29.935Z,6.43
2022-09-10T14:20:02.256Z,3.27
2022-09-10T14:22:31.909Z,4.87
2022-09-10T14:25:02.755Z,4.43
2022-09-10T14:27:33.150Z,6.67
2022-09-10T14:30:23.479Z,4.23
2022-09-10T14:32:53.786Z,5.83
2022-09-10T14:35:39.316Z,4.23
2022-09-10T14:38:25.967Z,5.23
2022-09-10T14:40:58.906Z,5.63
2022-09-10T14:43:31.160Z,6.40
2022-09-10T14:45:59.804Z,4.33
2022-09-10T14:48:37.819Z,6.80
2022-09-10T14:51:17.710Z,4.87
2022-09-10T14:53:47.729Z,6.00
2022-09-10T14:56:24.355Z,7.63
2022-09-10T14:58:59.532Z,9.20
2022-09-10T15:01:28.435Z,6.47
2022-09-10T15:04:00.475Z,5.67
2022-09-10T15:06:28.737Z,4.73
2022-09-10T15:08:57.176Z,5.40
2022-09-10T15:11:27.482Z,5.23
2022-09-10T15:13:58.871Z,5.97
2022-09-10T15:16:27.703Z,5.50
2022-09-10T15:18:58.246Z,6.77
2022-09-10T15:21:28.141Z,5.47
2022-09-10T15:23:56.378Z,6.67
2022-09-10T15:26:25.460Z,5.67
2022-09-10T15:28:54.680Z,5.00
2022-09-10T15:31:23.425Z,6.67
2022-09-10T15:33:52.627Z,4.40
2022-09-10T15:36:22.586Z,4.30
2022-09-10T15:38:53.984Z,1.60
2022-09-10T15:41:29.943Z,3.50
2022-09-10T15:44:03.120Z,1.97
2022-09-10T15:46:31.599Z,2.83
2022-09-10T15:49:00.016Z,1.77
2022-09-10T15:51:28.238Z,0.80
2022-09-10T15:54:01.783Z,1.33
2022-09-10T15:56:42.710Z,2.10
2022-09-10T15:59:19.175Z,2.63
2022-09-10T16:02:05.314Z,0.83
2022-09-10T16:04:45.166Z,0.80
2022-09-10T16:07:14.494Z,2.53
2022-09-10T16:09:44.366Z,1.93
2022-09-10T16:12:14.247Z,3.33
2022-09-10T16:14:44.523Z,2.03
2022-09-10T16:17:13.764Z,1.40
2022-09-10T16:19:42.070Z,3.10
2022-09-10T16:22:10.398Z,1.00
2022-09-10T16:24:39.379Z,1.20
2022-09-10T16:27:09.126Z,1.90
2022-09-10T16:29:38.194Z,1.83
2022-09-10T16:32:07.340Z,3.43
2022-09-10T16:34:35.836Z,3.53
2022-09-10T16:37:04.648Z,2.27
2022-09-10T16:39:33.948Z,4.17
2022-09-10T16:42:02.622Z,5.97
2022-09-10T16:44:32.446Z,3.47
2022-09-10T16:47:01.979Z,2.60
2022-09-10T16:49:30.286Z,1.50
2022-09-10T16:51:59.010Z,2.00
2022-09-10T16:54:27.503Z,1.80
2022-09-10T16:56:55.841Z,3.80
2022-09-10T16:59:26.030Z,2.90
2022-09-10T17:01:59.675Z,2.90
2022-09-10T17:04:29.310Z,2.70
2022-09-10T17:06:58.537Z,3.27
2022-09-10T17:09:27.261Z,2.33
2022-09-10T17:11:55.926Z,3.27
2022-09-10T17:14:24.897Z,6.57
2022-09-10T17:16:53.497Z,3.30
2022-09-10T17:19:26.515Z,3.17
2022-09-10T17:21:56.882Z,4.40
2022-09-10T17:24:27.140Z,4.77
2022-09-10T17:26:56.288Z,3.13
2022-09-10T17:29:26.426Z,4.00
2022-09-10T17:31:57.473Z,2.33
2022-09-10T17:34:28.284Z,5.10
2022-09-10T17:36:56.488Z,3.23
2022-09-10T17:39:28.299Z,4.03
2022-09-10T17:41:56.875Z,3.87
2022-09-10T17:44:26.331Z,2.70
2022-09-10T17:46:56.974Z,2.73
2022-09-10T17:49:26.867Z,1.90
2022-09-10T17:51:55.286Z,2.47
2022-09-10T17:54:24.420Z,2.17
2022-09-10T17:56:52.650Z,3.27
2022-09-10T17:59:29.231Z,3.57
2022-09-10T18:02:04.285Z,2.57
2022-09-10T18:04:34.226Z,2.13
2022-09-10T18:07:03.042Z,3.27
2022-09-10T18:09:31.567Z,2.17
2022-09-10T18:12:01.456Z,3.00
2022-09-10T18:14:30.180Z,3.13
2022-09-10T18:16:59.174Z,2.50
2022-09-10T18:19:28.097Z,2.37
2022-09-10T18:21:57.776Z,4.13
2022-09-10T18:24:28.348Z,4.23
2022-09-10T18:26:57.419Z,6.83
2022-09-10T18:29:28.269Z,2.03
2022-09-10T18:31:58.671Z,1.60
2022-09-10T18:34:29.866Z,1.97
2022-09-10T18:37:00.794Z,3.60
2022-09-10T18:39:30.914Z,3.17
2022-09-10T18:42:01.004Z,1.60
2022-09-10T18:44:33.496Z,4.40
2022-09-10T18:47:01.852Z,2.40
2022-09-10T18:49:30.881Z,1.97
2022-09-10T18:52:01.043Z,2.90
2022-09-10T18:54:30.144Z,1.97
2022-09-10T18:56:58.774Z,3.53
2022-09-10T18:59:27.785Z,1.97
2022-09-10T19:02:00.462Z,2.07
2022-09-10T19:04:49.052Z,1.60
2022-09-10T19:07:25.530Z,1.30
2022-09-10T19:09:54.071Z,2.43
2022-09-10T19:12:22.629Z,3.30
2022-09-10T19:14:51.453Z,2.17
2022-09-10T19:17:20.125Z,2.87
2022-09-10T19:19:50.305Z,2.03
2022-09-10T19:22:18.536Z,2.87
2022-09-10T19:24:56.531Z,2.47
2022-09-10T19:27:25.007Z,3.47
2022-09-10T19:29:53.884Z,2.57
2022-09-10T19:32:22.679Z,3.23
2022-09-10T19:34:51.490Z,2.77
2022-09-10T19:37:20.952Z,2.57
2022-09-10T19:39:51.088Z,2.20
2022-09-10T19:42:19.432Z,2.20
2022-09-10T19:44:49.177Z,2.27
2022-09-10T19:47:17.969Z,3.50
2022-09-10T19:49:46.933Z,3.03
2022-09-10T19:52:17.215Z,3.30
2022-09-10T19:54:45.608Z,2.73
2022-09-10T19:57:16.126Z,3.37
2022-09-10T19:59:44.928Z,4.30
2022-09-10T20:02:14.432Z,5.03
2022-09-10T20:04:43.123Z,3.57
2022-09-10T20:07:11.817Z,4.23
2022-09-10T20:09:40.915Z,4.47
2022-09-10T20:12:10.860Z,3.93
2022-09-10T20:14:41.000Z,5.53
2022-09-10T20:17:10.119Z,7.40
2022-09-10T20:19:39.003Z,4.10
2022-09-10T20:22:07.998Z,5.53
2022-09-10T20:24:37.389Z,4.77
2022-09-10T20:27:06.792Z,5.90
2022-09-10T20:29:36.608Z,4.93
2022-09-10T20:32:07.501Z,3.60
2022-09-10T20:34:37.231Z,4.43
2022-09-10T20:37:05.682Z,5.20
2022-09-10T20:39:34.750Z,4.27
2022-09-10T20:42:04.930Z,4.40
2022-09-10T20:44:36.016Z,5.40
2022-09-10T20:47:07.631Z,4.23
2022-09-10T20:49:36.112Z,4.97
2022-09-10T20:52:04.722Z,5.27
2022-09-10T20:54:33.191Z,5.13
2022-09-10T20:57:02.242Z,7.43
2022-09-10T20:59:31.050Z,4.97
2022-09-10T21:01:59.671Z,4.63
2022-09-10T21:04:29.392Z,4.90
2022-09-10T21:06:57.773Z,5.80
2022-09-10T21:09:26.192Z,5.80
2022-09-10T21:11:55.141Z,7.13
2022-09-10T21:14:26.489Z,8.10
2022-09-10T21:16:55.518Z,9.17
2022-09-10T21:19:23.776Z,8.43
2022-09-10T21:21:53.899Z,8.70
2022-09-10T21:24:23.067Z,8.37
2022-09-10T21:26:53.760Z,9.93
2022-09-10T21:29:23.579Z,8.97
2022-09-10T21:31:54.680Z,10.77
2022-09-10T21:34:24.568Z,10.57
2022-09-10T21:36:54.251Z,10.40
2022-09-10T21:39:22.664Z,10.17
2022-09-10T21:41:52.683Z,11.07
2022-09-10T21:44:22.081Z,12.57
2022-09-10T21:46:51.052Z,11.40
2022-09-10T21:49:20.252Z,11.23
2022-09-10T21:51:49.410Z,11.77
2022-09-10T21:54:20.871Z,12.83
2022-09-10T21:56:49.945Z,11.60
2022-09-10T21:59:18.411Z,11.90
2022-09-10T22:01:48.179Z,13.20
2022-09-10T22:04:22.120Z,13.77
2022-09-10T22:06:51.439Z,15.67
2022-09-10T22:09:21.423Z,17.00
2022-09-10T22:11:52.031Z,15.07
2022-09-10T22:14:22.440Z,16.30
2022-09-10T22:16:51.163Z,15.37
2022-09-10T22:19:21.871Z,15.57
2022-09-10T22:21:50.325Z,16.50
2022-09-10T22:24:20.174Z,17.73
2022-09-10T22:26:53.962Z,14.83
2022-09-10T22:29:29.930Z,16.47
2022-09-10T22:31:58.626Z,16.67
2022-09-10T22:34:27.545Z,15.70
2022-09-10T22:36:55.881Z,13.17
2022-09-10T22:39:25.808Z,24.47
2022-09-10T22:41:55.467Z,16.90
2022-09-10T22:44:23.914Z,16.07
2022-09-10T22:46:52.503Z,15.43
2022-09-10T22:49:21.947Z,14.47
2022-09-10T22:51:50.310Z,16.43
2022-09-10T22:54:18.684Z,16.60
2022-09-10T22:56:48.231Z,15.33
2022-09-10T22:59:25.663Z,16.33
2022-09-10T23:02:03.178Z,19.87
2022-09-10T23:04:31.891Z,15.30
2022-09-10T23:07:00.884Z,19.23
2022-09-10T23:09:29.409Z,18.97
2022-09-10T23:11:59.025Z,18.10
2022-09-10T23:14:27.152Z,19.33
2022-09-10T23:16:55.485Z,18.37
2022-09-10T23:19:26.340Z,18.53
2022-09-10T23:21:56.132Z,18.70
2022-09-10T23:24:26.447Z,17.77
2022-09-10T23:26:55.314Z,18.37
2022-09-10T23:29:25.054Z,21.73
2022-09-10T23:31:54.314Z,18.63
2022-09-10T23:34:24.061Z,20.60
2022-09-10T23:36:53.813Z,22.60
2022-09-10T23:39:23.895Z,21.27
2022-09-10T23:41:54.235Z,23.23
2022-09-10T23:44:23.950Z,23.60
2022-09-10T23:46:54.342Z,23.33
2022-09-10T23:49:24.057Z,22.17
2022-09-10T23:52:03.425Z,24.77
2022-09-10T23:54:47.778Z,25.70
2022-09-10T23:57:27.191Z,23.00
2022-09-10T23:59:56.078Z,21.37
